Time;durP1;ratioP1;P1;durP2;ratioP2;P2;SDS_P1;SDS_P2;PMS_P1;PMS_P2;Temp;Humidity;BMP_temperature;BMP_pressure;BME280_temperature;BME280_humidity;BME280_pressure;Samples;Min_cycle;Max_cycle;Signal;HPM_P1;HPM_P2
2021/05/16 00:00:10;;;;;;;10.35;4.85;;;12.90;99.90;;;;;;4972423;28;20497;-77
2021/05/16 00:02:36;;;;;;;9.45;4.95;;;13.00;99.90;;;;;;4964017;28;20122;-76
2021/05/16 00:05:03;;;;;;;7.05;4.47;;;12.80;99.90;;;;;;4968266;28;20018;-77
2021/05/16 00:07:29;;;;;;;8.02;4.93;;;12.50;99.90;;;;;;4963692;28;20096;-77
2021/05/16 00:09:54;;;;;;;7.53;4.63;;;12.40;99.90;;;;;;4972995;28;20525;-76
2021/05/16 00:12:20;;;;;;;7.90;4.63;;;12.40;99.90;;;;;;4971922;28;20027;-76
2021/05/16 00:14:48;;;;;;;7.40;4.60;;;12.50;99.90;;;;;;4973219;28;20023;-78
2021/05/16 00:17:14;;;;;;;6.78;4.40;;;12.50;99.90;;;;;;4964618;28;20028;-76
2021/05/16 00:19:39;;;;;;;6.07;4.50;;;12.50;99.90;;;;;;4950670;28;20387;-76
2021/05/16 00:22:05;;;;;;;6.47;4.90;;;12.50;99.90;;;;;;4955283;28;20078;-78
2021/05/16 00:24:31;;;;;;;9.70;5.05;;;12.60;99.90;;;;;;4959304;28;20101;-79
2021/05/16 00:26:57;;;;;;;6.00;4.53;;;13.00;99.90;;;;;;4962125;28;20023;-78
2021/05/16 00:29:23;;;;;;;50.28;30.90;;;13.30;99.90;;;;;;4961564;28;20065;-78
2021/05/16 00:31:49;;;;;;;45.47;28.10;;;13.40;99.90;;;;;;4959187;28;20069;-77
2021/05/16 00:34:15;;;;;;;51.00;32.33;;;13.60;99.90;;;;;;4972405;28;20486;-77
2021/05/16 00:36:41;;;;;;;47.72;28.95;;;13.70;99.90;;;;;;4973597;28;20039;-78
2021/05/16 00:39:07;;;;;;;32.22;19.45;;;13.60;99.90;;;;;;4963719;28;20023;-78
2021/05/16 00:41:33;;;;;;;14.65;8.90;;;13.60;99.90;;;;;;4954330;28;20463;-78
2021/05/16 00:43:59;;;;;;;6.93;5.25;;;13.60;99.90;;;;;;4960256;28;20022;-78
2021/05/16 00:46:26;;;;;;;8.57;4.65;;;13.60;99.90;;;;;;4973661;28;20047;-79
2021/05/16 00:48:52;;;;;;;6.43;4.13;;;13.20;99.90;;;;;;4973518;28;20080;-79
2021/05/16 00:51:18;;;;;;;8.63;5.18;;;13.30;99.90;;;;;;4973123;28;20402;-81
2021/05/16 00:53:44;;;;;;;6.85;4.68;;;13.50;99.90;;;;;;4973291;28;20031;-78
2021/05/16 00:56:10;;;;;;;6.18;4.20;;;13.40;99.90;;;;;;4973292;28;20038;-79
2021/05/16 00:58:36;;;;;;;8.13;4.30;;;13.50;99.90;;;;;;4972969;28;20081;-79
2021/05/16 01:01:07;;;;;;;8.88;5.35;;;13.50;99.90;;;;;;4973689;28;20469;-78
2021/05/16 01:03:33;;;;;;;15.55;4.80;;;13.40;99.90;;;;;;4973346;28;20015;-79
2021/05/16 01:05:59;;;;;;;6.50;4.65;;;13.40;99.90;;;;;;4973688;28;20347;-79
2021/05/16 01:08:24;;;;;;;6.95;4.15;;;13.20;99.90;;;;;;4973628;28;20022;-78
2021/05/16 01:10:51;;;;;;;7.53;4.25;;;13.20;99.90;;;;;;4973276;28;20027;-75
2021/05/16 01:13:17;;;;;;;8.63;5.13;;;12.50;99.90;;;;;;4973568;28;20022;-77
2021/05/16 01:15:45;;;;;;;10.98;4.78;;;12.20;99.90;;;;;;4971867;28;20035;-78
2021/05/16 01:18:11;;;;;;;7.38;5.07;;;12.20;99.90;;;;;;4972921;28;20098;-78
2021/05/16 01:20:41;;;;;;;7.25;4.40;;;12.30;99.90;;;;;;4973051;28;20029;-78
2021/05/16 01:23:10;;;;;;;6.68;4.78;;;12.80;99.90;;;;;;4973516;28;20018;-78
2021/05/16 01:25:39;;;;;;;7.25;5.25;;;12.90;99.90;;;;;;4973086;28;20021;-78
2021/05/16 01:28:07;;;;;;;7.60;4.57;;;13.10;99.90;;;;;;4972794;28;20015;-78
2021/05/16 01:30:33;;;;;;;9.52;4.63;;;13.10;99.90;;;;;;4972685;28;20497;-78
2021/05/16 01:32:59;;;;;;;10.82;4.20;;;13.10;99.90;;;;;;4972979;28;20118;-78
2021/05/16 01:35:25;;;;;;;7.72;4.85;;;13.10;99.90;;;;;;4973148;28;20054;-78
2021/05/16 01:37:51;;;;;;;6.90;4.55;;;13.20;99.90;;;;;;4972947;28;20026;-76
2021/05/16 01:40:19;;;;;;;6.13;4.57;;;13.10;99.90;;;;;;4954323;28;20019;-77
2021/05/16 01:42:48;;;;;;;6.00;4.75;;;13.10;99.90;;;;;;4953610;29;20546;-76
2021/05/16 01:45:16;;;;;;;9.02;4.80;;;13.00;99.90;;;;;;4953480;29;20106;-78
2021/05/16 01:47:42;;;;;;;8.20;5.00;;;12.80;99.90;;;;;;4952877;29;20039;-74
2021/05/16 01:50:11;;;;;;;10.32;5.35;;;12.90;99.90;;;;;;4953694;29;20047;-76
2021/05/16 01:52:39;;;;;;;6.93;5.10;;;12.70;99.90;;;;;;4952306;29;20029;-77
2021/05/16 01:55:06;;;;;;;9.05;4.80;;;12.80;99.90;;;;;;4953527;29;20487;-78
2021/05/16 01:57:32;;;;;;;9.32;5.60;;;12.80;99.90;;;;;;4953430;29;20023;-77
2021/05/16 01:59:59;;;;;;;17.33;11.75;;;12.70;99.90;;;;;;4953198;29;20019;-78
2021/05/16 02:02:26;;;;;;;49.47;31.17;;;12.90;99.90;;;;;;4952955;28;20410;-76
2021/05/16 02:04:52;;;;;;;19.92;12.80;;;13.00;99.90;;;;;;4952075;29;20452;-77
2021/05/16 02:07:18;;;;;;;31.30;20.73;;;12.90;99.90;;;;;;4956432;28;20031;-78
2021/05/16 02:09:44;;;;;;;20.77;14.13;;;13.00;99.90;;;;;;4973183;28;20026;-77
2021/05/16 02:12:10;;;;;;;28.25;18.05;;;13.00;99.90;;;;;;4972634;28;20113;-78
2021/05/16 02:14:36;;;;;;;21.45;14.23;;;12.90;99.90;;;;;;4972360;28;20055;-78
2021/05/16 02:17:04;;;;;;;15.35;7.68;;;12.90;99.90;;;;;;4954856;28;20058;-77
2021/05/16 02:19:30;;;;;;;11.27;6.30;;;12.90;99.90;;;;;;4953805;28;20035;-79
2021/05/16 02:21:56;;;;;;;9.98;6.15;;;12.80;99.90;;;;;;4948671;29;20023;-77
2021/05/16 02:24:22;;;;;;;9.95;6.45;;;12.80;99.90;;;;;;4953000;29;20375;-78
2021/05/16 02:26:48;;;;;;;9.68;5.80;;;12.70;99.90;;;;;;4952580;29;20046;-79
2021/05/16 02:29:15;;;;;;;9.60;6.32;;;12.50;99.90;;;;;;4952906;29;20027;-79
2021/05/16 02:31:43;;;;;;;9.70;6.15;;;12.50;99.90;;;;;;4951941;29;20394;-77
2021/05/16 02:34:09;;;;;;;11.38;6.28;;;12.60;99.90;;;;;;4935594;29;20028;-79
2021/05/16 02:36:35;;;;;;;9.02;5.80;;;12.60;99.90;;;;;;4952783;29;20054;-79
2021/05/16 02:39:01;;;;;;;11.60;5.90;;;12.60;99.90;;;;;;4951671;29;20081;-79
2021/05/16 02:41:27;;;;;;;8.07;5.85;;;12.60;99.90;;;;;;4951493;29;20023;-77
2021/05/16 02:43:53;;;;;;;7.82;5.55;;;12.70;99.90;;;;;;4951776;29;20030;-77
2021/05/16 02:46:19;;;;;;;6.72;5.05;;;12.60;99.90;;;;;;4952192;29;20122;-78
2021/05/16 02:48:44;;;;;;;8.60;4.30;;;12.40;99.90;;;;;;4952697;29;20459;-77
2021/05/16 02:51:10;;;;;;;8.00;4.88;;;12.50;99.90;;;;;;4953027;29;20058;-77
2021/05/16 02:53:36;;;;;;;6.72;4.97;;;12.50;99.90;;;;;;4953019;29;20042;-77
2021/05/16 02:56:02;;;;;;;9.45;6.05;;;12.40;99.90;;;;;;4952779;29;20031;-75
2021/05/16 02:58:28;;;;;;;6.72;5.63;;;12.30;99.90;;;;;;4952681;29;20502;-78
2021/05/16 03:00:54;;;;;;;9.90;5.32;;;12.10;99.90;;;;;;4935571;29;20062;-77
2021/05/16 03:03:20;;;;;;;8.65;5.22;;;12.00;99.90;;;;;;4953234;29;20058;-75
2021/05/16 03:05:46;;;;;;;7.82;5.38;;;12.30;99.90;;;;;;4952314;29;20098;-77
2021/05/16 03:08:12;;;;;;;7.30;5.00;;;12.50;99.90;;;;;;4952876;29;20094;-76
2021/05/16 03:10:38;;;;;;;9.43;4.88;;;12.50;99.90;;;;;;4952671;29;20028;-79
2021/05/16 03:13:04;;;;;;;7.60;5.20;;;12.50;99.90;;;;;;4952492;29;20026;-77
2021/05/16 03:15:30;;;;;;;7.35;5.68;;;12.50;99.90;;;;;;4952604;29;20486;-78
2021/05/16 03:17:56;;;;;;;9.60;5.10;;;12.50;99.90;;;;;;4937106;29;20038;-79
2021/05/16 03:20:22;;;;;;;7.00;5.20;;;12.40;99.90;;;;;;4956179;29;20019;-78
2021/05/16 03:22:48;;;;;;;6.93;5.30;;;12.50;99.90;;;;;;4956232;29;20059;-80
2021/05/16 03:25:15;;;;;;;8.55;4.72;;;12.40;99.90;;;;;;4956189;29;20057;-78
2021/05/16 03:27:41;;;;;;;7.32;4.90;;;12.40;99.90;;;;;;4955991;29;20121;-80
2021/05/16 03:30:10;;;;;;;8.35;5.10;;;12.30;99.90;;;;;;4956227;29;20027;-79
2021/05/16 03:32:36;;;;;;;6.93;5.35;;;12.20;99.90;;;;;;4956009;29;20015;-79
2021/05/16 03:35:06;;;;;;;9.68;5.18;;;12.40;99.90;;;;;;4956287;29;20478;-80
2021/05/16 03:37:32;;;;;;;7.22;4.80;;;12.50;99.90;;;;;;4956045;29;20023;-78
2021/05/16 03:39:58;;;;;;;8.25;4.95;;;12.60;99.90;;;;;;4956042;29;20363;-79
2021/05/16 03:42:24;;;;;;;7.07;4.72;;;12.70;99.90;;;;;;4955831;29;20034;-80
2021/05/16 03:44:49;;;;;;;6.68;4.75;;;12.60;99.90;;;;;;4955711;29;20566;-81
2021/05/16 03:47:15;;;;;;;6.50;4.57;;;12.60;99.90;;;;;;4955294;28;20047;-79
2021/05/16 03:49:41;;;;;;;7.65;4.90;;;12.70;99.90;;;;;;4954705;29;20607;-80
2021/05/16 03:52:07;;;;;;;7.30;5.03;;;12.50;99.90;;;;;;4954396;29;20031;-80
2021/05/16 03:54:33;;;;;;;13.05;5.65;;;12.40;99.90;;;;;;4956218;28;20102;-80
2021/05/16 03:56:58;;;;;;;9.63;5.57;;;12.50;99.90;;;;;;4955605;29;20379;-80
2021/05/16 03:59:24;;;;;;;7.35;5.45;;;12.60;99.90;;;;;;4954335;29;20019;-79
2021/05/16 04:01:51;;;;;;;7.93;5.30;;;12.40;99.90;;;;;;4955553;29;20390;-78
2021/05/16 04:04:17;;;;;;;9.10;5.80;;;12.50;99.90;;;;;;4955492;29;20016;-78
2021/05/16 04:06:43;;;;;;;6.57;4.93;;;12.40;99.90;;;;;;4955293;28;20414;-79
2021/05/16 04:09:08;;;;;;;8.02;5.38;;;12.30;99.90;;;;;;4955530;29;20015;-78
2021/05/16 04:11:34;;;;;;;9.98;5.18;;;12.40;99.90;;;;;;4955177;28;20035;-78
2021/05/16 04:14:00;;;;;;;7.07;5.03;;;12.40;99.90;;;;;;4955402;29;20046;-78
2021/05/16 04:16:26;;;;;;;7.72;4.95;;;12.60;99.90;;;;;;4955526;28;20076;-79
2021/05/16 04:18:52;;;;;;;6.20;5.03;;;12.60;99.90;;;;;;4955122;28;20031;-79
2021/05/16 04:21:18;;;;;;;7.95;5.05;;;12.70;99.90;;;;;;4955404;28;20020;-77
2021/05/16 04:23:44;;;;;;;6.13;4.50;;;12.80;99.90;;;;;;4955055;28;20477;-78
2021/05/16 04:26:10;;;;;;;7.88;5.25;;;12.80;99.90;;;;;;4955089;29;20035;-78
2021/05/16 04:28:35;;;;;;;8.10;4.90;;;12.80;99.90;;;;;;4954685;28;20019;-78
2021/05/16 04:31:01;;;;;;;10.50;5.15;;;12.90;99.90;;;;;;4953404;29;20030;-78
2021/05/16 04:33:27;;;;;;;9.32;4.80;;;12.90;99.90;;;;;;4955067;29;20447;-77
2021/05/16 04:35:53;;;;;;;7.57;5.20;;;12.90;99.90;;;;;;4955132;28;20036;-79
2021/05/16 04:38:18;;;;;;;7.88;5.03;;;12.90;99.90;;;;;;4954925;28;20043;-78
2021/05/16 04:40:45;;;;;;;8.45;5.03;;;13.10;99.90;;;;;;4954795;28;20031;-78
2021/05/16 04:43:12;;;;;;;7.47;4.95;;;13.00;99.90;;;;;;4937780;29;20028;-77
2021/05/16 04:45:39;;;;;;;7.32;4.85;;;12.90;99.90;;;;;;4954484;29;20027;-77
2021/05/16 04:48:06;;;;;;;7.70;5.35;;;12.90;99.90;;;;;;4954514;28;20051;-77
2021/05/16 04:50:40;;;;;;;7.90;5.07;;;12.90;99.90;;;;;;4954774;29;20070;-78
2021/05/16 04:53:06;;;;;;;7.43;5.35;;;12.90;99.90;;;;;;4954569;29;20029;-77
2021/05/16 04:55:31;;;;;;;6.32;4.95;;;13.00;99.90;;;;;;4937146;29;20036;-78
2021/05/16 04:57:57;;;;;;;9.00;5.13;;;13.10;99.90;;;;;;4954599;29;20474;-77
2021/05/16 05:00:24;;;;;;;7.20;4.93;;;13.10;99.90;;;;;;4954385;29;20027;-78
2021/05/16 05:02:50;;;;;;;9.68;5.15;;;13.10;99.90;;;;;;4954480;29;20019;-77
2021/05/16 05:05:16;;;;;;;7.25;4.75;;;13.10;99.90;;;;;;4954268;29;20027;-76
2021/05/16 05:07:42;;;;;;;6.78;5.10;;;13.20;99.90;;;;;;4954264;29;20352;-78
2021/05/16 05:10:09;;;;;;;6.80;4.80;;;13.20;99.90;;;;;;4937385;29;20596;-79
2021/05/16 05:12:35;;;;;;;8.50;4.85;;;13.40;99.90;;;;;;4954276;29;20030;-79
2021/05/16 05:15:01;;;;;;;6.28;4.60;;;13.50;99.90;;;;;;4952906;29;20023;-80
2021/05/16 05:17:26;;;;;;;8.18;4.80;;;13.40;99.90;;;;;;4952343;29;20537;-78
2021/05/16 05:19:52;;;;;;;9.65;5.22;;;13.50;99.90;;;;;;4954085;29;20027;-78
2021/05/16 05:22:18;;;;;;;6.32;4.80;;;13.70;99.90;;;;;;4953891;29;20035;-78
2021/05/16 05:24:44;;;;;;;8.07;5.18;;;13.70;99.90;;;;;;4953990;29;20166;-79
2021/05/16 05:27:09;;;;;;;8.05;5.30;;;13.60;99.90;;;;;;4953794;29;20098;-78
2021/05/16 05:29:35;;;;;;;6.82;5.38;;;13.60;99.90;;;;;;4953727;29;20015;-80
2021/05/16 05:32:01;;;;;;;9.30;5.78;;;13.70;99.90;;;;;;4936216;29;20023;-79
2021/05/16 05:34:27;;;;;;;7.07;5.07;;;13.80;99.90;;;;;;4953897;29;20054;-79
2021/05/16 05:36:53;;;;;;;9.90;5.25;;;13.90;99.90;;;;;;4953650;29;20034;-78
2021/05/16 05:39:20;;;;;;;7.75;4.85;;;14.00;99.90;;;;;;4953528;29;20024;-78
2021/05/16 05:41:46;;;;;;;8.20;5.88;;;14.20;99.90;;;;;;4952678;28;20070;-78
2021/05/16 05:44:13;;;;;;;7.20;5.50;;;14.40;99.90;;;;;;4952456;29;20116;-80
2021/05/16 05:46:39;;;;;;;6.43;4.65;;;14.40;99.90;;;;;;4953333;28;20058;-78
2021/05/16 05:49:05;;;;;;;7.22;4.90;;;14.40;99.90;;;;;;4953686;29;20422;-78
2021/05/16 05:51:31;;;;;;;7.50;5.15;;;14.40;99.90;;;;;;4952125;29;20478;-78
2021/05/16 05:53:56;;;;;;;11.38;5.88;;;14.40;99.90;;;;;;4953815;28;20026;-77
2021/05/16 05:56:22;;;;;;;8.68;5.93;;;14.20;99.90;;;;;;4953303;28;20039;-78
2021/05/16 05:58:48;;;;;;;7.60;5.57;;;14.00;99.90;;;;;;4953613;29;20023;-78
2021/05/16 06:01:14;;;;;;;7.07;5.03;;;14.10;99.90;;;;;;4953350;29;20054;-79
2021/05/16 06:03:40;;;;;;;7.63;4.72;;;14.20;99.90;;;;;;4953220;29;20027;-79
2021/05/16 06:06:06;;;;;;;8.68;5.13;;;14.30;99.90;;;;;;4953297;29;20452;-79
2021/05/16 06:08:32;;;;;;;11.85;5.20;;;14.30;99.90;;;;;;4953533;29;20348;-79
2021/05/16 06:10:58;;;;;;;8.52;5.47;;;14.40;99.90;;;;;;4953167;29;20027;-79
2021/05/16 06:13:23;;;;;;;9.07;5.68;;;14.40;99.90;;;;;;4952098;29;20460;-79
2021/05/16 06:15:50;;;;;;;6.65;4.50;;;14.60;99.90;;;;;;4953246;28;20034;-81
2021/05/16 06:18:15;;;;;;;7.25;4.78;;;14.70;99.90;;;;;;4951691;29;20494;-80
2021/05/16 06:20:41;;;;;;;11.45;5.60;;;14.90;99.90;;;;;;4953117;29;20027;-79
2021/05/16 06:23:10;;;;;;;9.90;5.25;;;14.80;99.90;;;;;;4953188;29;20378;-80
2021/05/16 06:25:37;;;;;;;8.05;4.90;;;15.00;99.90;;;;;;4953065;28;20019;-79
2021/05/16 06:28:03;;;;;;;9.20;5.50;;;15.10;99.90;;;;;;4952184;29;20412;-79
2021/05/16 06:30:29;;;;;;;10.48;5.72;;;15.30;99.90;;;;;;4952708;28;20019;-79
2021/05/16 06:32:55;;;;;;;7.43;5.28;;;15.30;99.90;;;;;;4953303;28;20371;-81
2021/05/16 06:35:20;;;;;;;10.95;5.40;;;15.40;99.90;;;;;;4952981;28;20038;-81
2021/05/16 06:37:46;;;;;;;10.75;6.07;;;15.60;99.90;;;;;;4953135;28;20374;-81
2021/05/16 06:40:13;;;;;;;7.97;5.25;;;15.80;99.90;;;;;;4953359;29;20055;-79
2021/05/16 06:42:40;;;;;;;9.73;5.68;;;15.80;99.90;;;;;;4952745;29;20031;-79
2021/05/16 06:45:07;;;;;;;7.32;5.35;;;15.70;99.90;;;;;;4953173;29;20018;-79
2021/05/16 06:47:32;;;;;;;8.35;5.95;;;15.90;99.90;;;;;;4952734;28;20043;-79
2021/05/16 06:49:58;;;;;;;9.70;5.28;;;16.00;99.90;;;;;;4935603;29;20019;-79
2021/05/16 06:52:24;;;;;;;8.20;4.95;;;16.00;99.90;;;;;;4954211;28;20023;-78
2021/05/16 06:54:50;;;;;;;8.73;5.40;;;16.20;99.90;;;;;;4956575;29;20031;-77
2021/05/16 06:57:16;;;;;;;9.13;5.35;;;16.20;99.90;;;;;;4955036;29;20031;-81
2021/05/16 06:59:42;;;;;;;7.57;4.90;;;16.20;99.90;;;;;;4956719;29;20131;-80
2021/05/16 07:02:08;;;;;;;7.53;4.95;;;16.10;99.90;;;;;;4956413;29;20114;-80
2021/05/16 07:04:34;;;;;;;12.13;5.93;;;16.20;99.90;;;;;;4956417;29;20087;-80
2021/05/16 07:07:00;;;;;;;9.48;5.55;;;16.20;99.90;;;;;;4956368;29;20023;-79
2021/05/16 07:09:26;;;;;;;7.38;5.15;;;16.40;99.90;;;;;;4931255;29;20127;-78
2021/05/16 07:11:52;;;;;;;8.07;4.47;;;16.70;99.90;;;;;;4953991;29;20095;-78
2021/05/16 07:14:18;;;;;;;8.15;5.43;;;16.80;99.90;;;;;;4956242;29;20031;-77
2021/05/16 07:16:44;;;;;;;10.15;5.47;;;16.80;99.90;;;;;;4956036;29;20383;-79
2021/05/16 07:19:09;;;;;;;8.80;5.97;;;16.80;99.90;;;;;;4956272;29;20019;-80
2021/05/16 07:21:35;;;;;;;10.20;5.22;;;17.00;99.90;;;;;;4954468;29;20178;-78
2021/05/16 07:24:02;;;;;;;9.27;5.20;;;16.90;99.90;;;;;;4938908;29;20113;-78
2021/05/16 07:26:27;;;;;;;10.10;5.97;;;16.90;99.90;;;;;;4954726;29;20093;-78
2021/05/16 07:28:53;;;;;;;8.90;5.53;;;16.90;99.90;;;;;;4954622;29;20415;-78
2021/05/16 07:31:19;;;;;;;9.85;5.47;;;17.00;99.90;;;;;;4955844;29;20062;-80
2021/05/16 07:33:45;;;;;;;10.88;5.28;;;17.00;99.90;;;;;;4955870;29;20047;-80
2021/05/16 07:36:11;;;;;;;9.38;5.35;;;17.20;99.90;;;;;;4955373;29;20031;-79
2021/05/16 07:38:37;;;;;;;7.40;4.85;;;17.20;99.90;;;;;;4955854;29;20452;-79
2021/05/16 07:41:03;;;;;;;7.40;4.68;;;17.30;99.90;;;;;;4955849;29;20094;-80
2021/05/16 07:43:29;;;;;;;8.10;4.78;;;17.40;99.90;;;;;;4954280;29;20027;-80
2021/05/16 07:45:55;;;;;;;9.73;5.00;;;17.50;99.90;;;;;;4955415;28;20027;-79
2021/05/16 07:48:28;;;;;;;9.57;4.93;;;17.60;99.90;;;;;;4954166;29;20032;-80
2021/05/16 07:50:58;;;;;;;7.90;4.53;;;17.80;99.90;;;;;;4955349;28;20367;-78
2021/05/16 07:53:24;;;;;;;9.67;4.97;;;17.80;99.90;;;;;;4955753;28;20030;-79
2021/05/16 07:55:51;;;;;;;7.03;4.30;;;17.80;99.90;;;;;;4955249;28;20281;-80
2021/05/16 07:58:17;;;;;;;6.63;4.18;;;17.80;99.90;;;;;;4955441;28;20026;-79
2021/05/16 08:00:43;;;;;;;10.18;4.32;;;17.80;99.90;;;;;;4953723;29;20015;-81
2021/05/16 08:03:09;;;;;;;10.65;4.40;;;17.80;99.90;;;;;;4954842;28;20027;-79
2021/05/16 08:05:35;;;;;;;12.52;5.35;;;18.00;99.90;;;;;;4954366;28;20127;-78
2021/05/16 08:08:01;;;;;;;23.90;15.77;;;18.10;99.90;;;;;;4955148;29;20374;-79
2021/05/16 08:10:28;;;;;;;29.85;19.45;;;18.50;99.90;;;;;;4955343;28;20027;-79
2021/05/16 08:12:55;;;;;;;23.65;15.25;;;18.60;99.90;;;;;;4955147;28;20023;-79
2021/05/16 08:15:24;;;;;;;38.97;24.83;;;18.50;99.90;;;;;;4955085;28;20061;-79
2021/05/16 08:17:50;;;;;;;21.92;13.20;;;18.60;99.90;;;;;;4953684;29;20082;-79
2021/05/16 08:20:15;;;;;;;42.58;26.58;;;18.50;99.90;;;;;;4967733;28;20027;-78
2021/05/16 08:22:41;;;;;;;59.20;38.78;;;18.40;99.90;;;;;;4974101;28;20061;-78
2021/05/16 08:25:09;;;;;;;21.70;14.23;;;18.50;99.90;;;;;;4974340;28;20336;-80
2021/05/16 08:27:36;;;;;;;12.98;8.18;;;18.80;99.90;;;;;;4973485;28;20037;-78
2021/05/16 08:30:03;;;;;;;10.95;6.07;;;18.90;99.90;;;;;;4960635;28;20414;-79
2021/05/16 08:32:29;;;;;;;12.35;4.22;;;18.80;99.90;;;;;;4974083;28;20041;-79
2021/05/16 08:34:54;;;;;;;8.30;4.72;;;18.90;99.90;;;;;;4974160;28;20278;-78
2021/05/16 08:37:20;;;;;;;8.35;4.55;;;18.80;99.90;;;;;;4973375;28;20053;-77
2021/05/16 08:39:46;;;;;;;10.05;4.68;;;18.70;99.90;;;;;;4971136;28;20024;-79
2021/05/16 08:42:12;;;;;;;8.05;4.53;;;18.80;99.90;;;;;;4954656;29;20431;-79
2021/05/16 08:44:38;;;;;;;9.38;4.70;;;18.70;99.90;;;;;;4954376;28;20020;-79
2021/05/16 08:47:04;;;;;;;9.57;4.72;;;18.80;99.90;;;;;;4952327;28;20043;-79
2021/05/16 08:49:31;;;;;;;8.00;4.30;;;18.80;99.90;;;;;;4954393;28;20023;-80
2021/05/16 08:51:57;;;;;;;12.07;4.15;;;18.90;99.90;;;;;;4954149;28;20027;-77
2021/05/16 08:54:24;;;;;;;7.68;4.10;;;19.10;99.90;;;;;;4954071;29;20075;-78
2021/05/16 08:56:54;;;;;;;8.48;4.28;;;19.30;99.90;;;;;;4954004;28;20054;-80
2021/05/16 08:59:20;;;;;;;9.13;3.75;;;19.40;99.90;;;;;;4954175;28;20023;-82
2021/05/16 09:01:54;;;;;;;14.73;5.75;;;19.40;99.90;;;;;;4953942;28;20078;-78
2021/05/16 09:04:21;;;;;;;33.50;20.13;;;19.60;99.80;;;;;;4954295;28;20055;-77
2021/05/16 09:06:52;;;;;;;19.75;11.82;;;20.20;99.80;;;;;;4953395;28;20038;-78
2021/05/16 09:09:37;;;;;;;17.10;8.30;;;20.30;98.60;;;;;;4954554;28;20027;-76
2021/05/16 09:12:09;;;;;;;10.13;3.72;;;20.40;98.20;;;;;;4953777;28;20031;-75
2021/05/16 09:14:44;;;;;;;8.63;4.47;;;20.70;97.10;;;;;;4953727;28;20516;-78
2021/05/16 09:17:30;;;;;;;8.80;4.70;;;20.50;97.10;;;;;;4953567;29;20114;-77
2021/05/16 09:20:15;;;;;;;8.48;3.75;;;20.20;96.50;;;;;;4954140;28;20118;-79
2021/05/16 09:22:47;;;;;;;7.30;3.10;;;20.00;96.60;;;;;;4954037;28;20150;-77
2021/05/16 09:25:18;;;;;;;7.18;3.70;;;20.00;96.50;;;;;;4953906;28;20031;-78
2021/05/16 09:27:55;;;;;;;5.95;2.70;;;20.00;96.90;;;;;;4951967;29;20020;-77
2021/05/16 09:30:22;;;;;;;6.00;2.45;;;20.40;97.50;;;;;;4953568;28;20187;-76
2021/05/16 09:32:59;;;;;;;6.53;2.40;;;20.80;96.10;;;;;;4953055;28;20020;-76
2021/05/16 09:35:44;;;;;;;6.20;2.30;;;21.30;95.90;;;;;;4953493;28;20042;-80
2021/05/16 09:38:21;;;;;;;5.78;2.55;;;21.30;95.10;;;;;;4953253;28;20076;-77
2021/05/16 09:40:54;;;;;;;5.18;3.05;;;21.10;94.90;;;;;;4953225;28;20027;-78
2021/05/16 09:43:29;;;;;;;5.40;2.53;;;21.10;94.40;;;;;;4953114;29;20394;-79
2021/05/16 09:46:06;;;;;;;4.50;2.35;;;21.00;94.20;;;;;;4953194;28;20019;-78
2021/05/16 09:48:44;;;;;;;4.65;2.03;;;21.10;93.40;;;;;;4953384;29;20024;-79
2021/05/16 09:51:21;;;;;;;3.50;1.92;;;21.10;94.00;;;;;;4951966;29;20023;-76
2021/05/16 09:53:54;;;;;;;5.28;2.05;;;21.00;93.90;;;;;;4952149;29;20506;-77
2021/05/16 09:56:27;;;;;;;4.78;2.40;;;21.10;93.50;;;;;;4951886;28;20071;-79
2021/05/16 09:58:56;;;;;;;4.80;2.00;;;21.00;93.00;;;;;;4952888;28;20016;-78
2021/05/16 10:01:23;;;;;;;3.85;1.75;;;21.00;92.60;;;;;;4952883;29;20362;-77
2021/05/16 10:03:49;;;;;;;5.05;2.10;;;20.80;92.50;;;;;;4935861;29;20106;-78
2021/05/16 10:06:17;;;;;;;3.08;1.80;;;20.60;93.20;;;;;;4953321;29;20391;-78
2021/05/16 10:08:46;;;;;;;4.63;2.00;;;20.40;94.00;;;;;;4952587;29;20034;-78
2021/05/16 10:11:13;;;;;;;4.25;2.33;;;20.20;94.00;;;;;;4953373;29;20193;-79
2021/05/16 10:13:42;;;;;;;18.67;12.80;;;20.00;94.40;;;;;;4953109;29;20023;-79
2021/05/16 10:16:14;;;;;;;20.17;12.55;;;20.20;96.80;;;;;;4952696;29;20482;-79
2021/05/16 10:18:41;;;;;;;25.73;15.80;;;20.20;95.40;;;;;;4953095;29;20027;-79
2021/05/16 10:21:07;;;;;;;53.22;35.05;;;20.20;95.60;;;;;;4953047;29;20019;-78
2021/05/16 10:23:38;;;;;;;34.15;17.92;;;20.30;95.50;;;;;;4952586;29;20090;-78
2021/05/16 10:26:33;;;;;;;14.52;8.35;;;20.50;95.50;;;;;;4953195;29;20517;-80
2021/05/16 10:29:01;;;;;;;4.45;2.33;;;20.40;93.90;;;;;;4947485;29;20037;-78
2021/05/16 10:31:40;;;;;;;4.20;1.95;;;20.40;93.40;;;;;;4957008;29;20371;-81
2021/05/16 10:34:27;;;;;;;5.50;2.10;;;20.60;93.20;;;;;;4956441;29;20023;-77
2021/05/16 10:37:03;;;;;;;4.97;2.00;;;21.10;92.30;;;;;;4957050;29;20479;-77
2021/05/16 10:39:38;;;;;;;4.43;1.70;;;21.20;91.40;;;;;;4956850;29;20019;-78
2021/05/16 10:42:17;;;;;;;4.13;2.03;;;21.10;91.40;;;;;;4956619;29;20035;-80
2021/05/16 10:44:59;;;;;;;4.60;2.30;;;21.00;91.40;;;;;;4956118;29;20031;-79
2021/05/16 10:50:33;;;;;;;3.15;1.60;;;20.90;91.80;;;;;;4956803;29;20615;-78
2021/05/16 10:53:00;;;;;;;3.03;1.52;;;21.00;92.20;;;;;;4955769;29;20031;-79
2021/05/16 10:55:38;;;;;;;7.70;2.70;;;20.90;91.60;;;;;;4956413;29;20027;-80
2021/05/16 10:58:05;;;;;;;3.63;1.83;;;21.00;91.60;;;;;;4956100;28;20054;-80
2021/05/16 11:00:35;;;;;;;3.40;1.98;;;21.30;91.50;;;;;;4956374;28;20027;-78
2021/05/16 11:03:01;;;;;;;3.22;1.60;;;21.70;91.50;;;;;;4954835;29;20035;-80
2021/05/16 11:08:08;;;;;;;2.97;1.40;;;22.30;88.00;;;;;;4955790;29;20050;-79
2021/05/16 11:10:35;;;;;;;3.97;1.70;;;22.70;87.40;;;;;;4956265;28;20023;-79
2021/05/16 11:13:29;;;;;;;3.42;1.60;;;23.30;85.30;;;;;;4955710;28;20086;-79
2021/05/16 11:15:56;;;;;;;4.78;1.70;;;23.40;85.10;;;;;;4955758;28;20029;-80
2021/05/16 11:18:22;;;;;;;3.72;1.30;;;23.50;81.50;;;;;;4955435;28;20035;-78
2021/05/16 11:20:53;;;;;;;3.10;1.50;;;23.20;80.30;;;;;;4956139;28;20015;-79
2021/05/16 11:23:27;;;;;;;2.70;1.63;;;23.20;81.30;;;;;;4955994;28;20034;-80
2021/05/16 11:26:00;;;;;;;3.20;1.60;;;23.30;80.50;;;;;;4954689;29;20117;-81
2021/05/16 11:28:31;;;;;;;3.58;1.73;;;23.40;79.80;;;;;;4955344;28;20042;-81
2021/05/16 11:30:57;;;;;;;2.65;1.40;;;24.10;78.80;;;;;;4955799;28;20414;-80
2021/05/16 11:33:34;;;;;;;3.30;1.50;;;24.20;78.00;;;;;;4955813;28;20027;-79
2021/05/16 11:36:14;;;;;;;3.28;1.73;;;24.50;76.60;;;;;;4955604;28;20031;-78
2021/05/16 11:38:42;;;;;;;3.20;1.30;;;25.00;75.30;;;;;;4955549;28;20027;-81
2021/05/16 11:41:26;;;;;;;3.35;1.45;;;24.70;73.90;;;;;;4955487;28;20098;-79
2021/05/16 11:43:52;;;;;;;2.72;1.40;;;24.80;74.50;;;;;;4955332;29;20012;-79
2021/05/16 11:46:24;;;;;;;11.82;7.50;;;24.60;75.10;;;;;;4954867;28;20110;-79
2021/05/16 11:48:50;;;;;;;6.28;3.40;;;24.10;74.50;;;;;;4955266;29;20024;-78
2021/05/16 11:51:17;;;;;;;22.17;16.63;;;23.80;74.60;;;;;;4955742;29;20020;-79
2021/05/16 11:53:49;;;;;;;8.82;6.10;;;24.10;75.40;;;;;;4955134;29;20031;-77
2021/05/16 11:56:27;;;;;;;7.32;4.13;;;24.30;75.70;;;;;;4955081;29;20051;-78
2021/05/16 11:59:04;;;;;;;11.80;5.43;;;24.80;73.50;;;;;;4955419;29;20026;-77
2021/05/16 12:01:34;;;;;;;36.40;22.58;;;25.00;72.60;;;;;;4955270;29;20035;-76
2021/05/16 12:04:01;;;;;;;22.60;15.00;;;24.70;72.90;;;;;;4955154;29;20371;-78
2021/05/16 12:06:52;;;;;;;4.10;2.25;;;24.50;71.90;;;;;;4955104;29;20030;-77
2021/05/16 12:09:25;;;;;;;18.35;12.57;;;23.80;69.10;;;;;;4936437;29;20031;-76
2021/05/16 12:11:53;;;;;;;24.48;18.33;;;24.00;70.90;;;;;;4925391;28;20574;-77
2021/05/16 12:14:24;;;;;;;15.40;12.07;;;24.40;68.40;;;;;;4961040;28;20035;-78
2021/05/16 12:16:52;;;;;;;46.70;32.15;;;25.30;69.90;;;;;;4953675;29;20426;-79
2021/05/16 12:19:23;;;;;;;19.48;11.30;;;26.00;66.60;;;;;;4953400;29;20031;-80
2021/05/16 12:21:51;;;;;;;7.88;4.22;;;26.30;66.40;;;;;;4954753;29;20027;-75
2021/05/16 12:24:21;;;;;;;8.90;4.72;;;25.80;65.60;;;;;;4954913;29;20447;-77
2021/05/16 12:26:47;;;;;;;;;;;25.30;67.40;;;;;;4954980;29;20059;-78
2021/05/16 12:29:15;;;;;;;6.63;2.60;;;24.90;67.70;;;;;;4954168;29;19908;-77
2021/05/16 12:31:42;;;;;;;3.67;1.90;;;24.80;67.50;;;;;;4954775;29;20054;-77
2021/05/16 12:34:08;;;;;;;3.45;1.77;;;24.60;67.30;;;;;;4954333;29;20442;-76
2021/05/16 12:36:48;;;;;;;2.63;1.40;;;24.10;65.20;;;;;;4954770;29;20537;-77
2021/05/16 12:39:14;;;;;;;8.45;3.90;;;24.10;66.00;;;;;;4960069;28;20027;-76
2021/05/16 12:41:40;;;;;;;4.68;2.45;;;24.40;69.70;;;;;;4970014;28;20078;-77
2021/05/16 12:44:24;;;;;;;7.15;2.72;;;24.70;68.30;;;;;;4972203;28;20093;-77
2021/05/16 12:46:51;;;;;;;5.70;3.03;;;24.80;66.10;;;;;;4962369;28;20047;-78
2021/05/16 12:49:25;;;;;;;7.47;2.45;;;24.80;67.20;;;;;;4971760;28;20078;-77
2021/05/16 12:52:02;;;;;;;7.57;1.80;;;25.10;67.20;;;;;;4972107;28;20030;-80